sensor_id;sensor_type;location;lat;lon;timestamp;P1;durP1;ratioP1;P2;durP2;ratioP2
24279;SDS011;12395;42.808;23.408;2023-04-24T00:00:14;4.93;;;3.38;;
24279;SDS011;12395;42.808;23.408;2023-04-24T00:02:41;5.68;;;2.60;;
24279;SDS011;12395;42.808;23.408;2023-04-24T00:05:09;6.40;;;3.45;;
24279;SDS011;12395;42.808;23.408;2023-04-24T00:07:35;5.38;;;3.08;;
24279;SDS011;12395;42.808;23.408;2023-04-24T00:10:00;6.40;;;3.10;;
24279;SDS011;12395;42.808;23.408;2023-04-24T00:12:26;5.50;;;3.08;;
24279;SDS011;12395;42.808;23.408;2023-04-24T00:14:52;7.35;;;3.40;;
24279;SDS011;12395;42.808;23.408;2023-04-24T00:17:17;6.10;;;3.60;;
24279;SDS011;12395;42.808;23.408;2023-04-24T00:19:47;8.30;;;3.50;;
24279;SDS011;12395;42.808;23.408;2023-04-24T00:22:13;7.22;;;3.22;;
24279;SDS011;12395;42.808;23.408;2023-04-24T00:24:39;5.97;;;3.28;;
24279;SDS011;12395;42.808;23.408;2023-04-24T00:27:05;5.78;;;3.20;;
24279;SDS011;12395;42.808;23.408;2023-04-24T00:29:30;6.43;;;3.22;;
24279;SDS011;12395;42.808;23.408;2023-04-24T00:31:56;7.03;;;3.60;;
24279;SDS011;12395;42.808;23.408;2023-04-24T00:34:21;5.03;;;3.17;;
24279;SDS011;12395;42.808;23.408;2023-04-24T00:36:47;5.75;;;3.40;;
24279;SDS011;12395;42.808;23.408;2023-04-24T00:39:15;6.05;;;3.42;;
24279;SDS011;12395;42.808;23.408;2023-04-24T00:41:40;7.85;;;3.40;;
24279;SDS011;12395;42.808;23.408;2023-04-24T00:44:06;6.30;;;3.33;;
24279;SDS011;12395;42.808;23.408;2023-04-24T00:46:32;5.55;;;3.20;;
24279;SDS011;12395;42.808;23.408;2023-04-24T00:48:57;6.07;;;3.28;;
24279;SDS011;12395;42.808;23.408;2023-04-24T00:51:24;6.90;;;3.10;;
24279;SDS011;12395;42.808;23.408;2023-04-24T00:53:49;5.65;;;3.50;;
24279;SDS011;12395;42.808;23.408;2023-04-24T00:56:16;5.07;;;3.42;;
24279;SDS011;12395;42.808;23.408;2023-04-24T00:58:42;5.75;;;3.50;;
24279;SDS011;12395;42.808;23.408;2023-04-24T01:01:08;5.88;;;3.38;;
24279;SDS011;12395;42.808;23.408;2023-04-24T01:03:34;6.70;;;3.33;;
24279;SDS011;12395;42.808;23.408;2023-04-24T01:06:02;8.00;;;3.53;;
24279;SDS011;12395;42.808;23.408;2023-04-24T01:08:28;6.43;;;3.38;;
24279;SDS011;12395;42.808;23.408;2023-04-24T01:10:54;5.15;;;3.35;;
24279;SDS011;12395;42.808;23.408;2023-04-24T01:13:20;6.13;;;3.65;;
24279;SDS011;12395;42.808;23.408;2023-04-24T01:15:46;7.18;;;3.65;;
24279;SDS011;12395;42.808;23.408;2023-04-24T01:18:12;6.35;;;3.40;;
24279;SDS011;12395;42.808;23.408;2023-04-24T01:20:41;5.40;;;3.42;;
24279;SDS011;12395;42.808;23.408;2023-04-24T01:23:09;8.20;;;3.53;;
24279;SDS011;12395;42.808;23.408;2023-04-24T01:25:35;8.13;;;3.60;;
24279;SDS011;12395;42.808;23.408;2023-04-24T01:28:02;5.18;;;3.50;;
24279;SDS011;12395;42.808;23.408;2023-04-24T01:30:28;5.72;;;3.80;;
24279;SDS011;12395;42.808;23.408;2023-04-24T01:32:54;7.53;;;3.40;;
24279;SDS011;12395;42.808;23.408;2023-04-24T01:35:20;6.78;;;3.95;;
24279;SDS011;12395;42.808;23.408;2023-04-24T01:37:46;6.75;;;3.50;;
24279;SDS011;12395;42.808;23.408;2023-04-24T01:40:11;5.80;;;3.30;;
24279;SDS011;12395;42.808;23.408;2023-04-24T01:42:37;5.35;;;3.65;;
24279;SDS011;12395;42.808;23.408;2023-04-24T01:45:03;5.72;;;3.60;;
24279;SDS011;12395;42.808;23.408;2023-04-24T01:47:30;4.75;;;3.40;;
24279;SDS011;12395;42.808;23.408;2023-04-24T01:49:56;5.53;;;3.20;;
24279;SDS011;12395;42.808;23.408;2023-04-24T01:52:22;5.43;;;3.60;;
24279;SDS011;12395;42.808;23.408;2023-04-24T01:54:48;5.80;;;3.63;;
24279;SDS011;12395;42.808;23.408;2023-04-24T01:57:14;6.50;;;3.40;;
24279;SDS011;12395;42.808;23.408;2023-04-24T01:59:39;5.85;;;3.50;;
24279;SDS011;12395;42.808;23.408;2023-04-24T02:02:05;5.60;;;3.30;;
24279;SDS011;12395;42.808;23.408;2023-04-24T02:04:31;6.72;;;3.30;;
24279;SDS011;12395;42.808;23.408;2023-04-24T02:06:57;6.07;;;3.45;;
24279;SDS011;12395;42.808;23.408;2023-04-24T02:09:22;5.43;;;3.58;;
24279;SDS011;12395;42.808;23.408;2023-04-24T02:11:48;7.00;;;3.65;;
24279;SDS011;12395;42.808;23.408;2023-04-24T02:14:13;6.60;;;3.78;;
24279;SDS011;12395;42.808;23.408;2023-04-24T02:16:39;6.75;;;3.33;;
24279;SDS011;12395;42.808;23.408;2023-04-24T02:19:04;8.85;;;3.50;;
24279;SDS011;12395;42.808;23.408;2023-04-24T02:21:30;5.68;;;3.65;;
24279;SDS011;12395;42.808;23.408;2023-04-24T02:23:56;5.32;;;3.40;;
24279;SDS011;12395;42.808;23.408;2023-04-24T02:26:22;6.85;;;4.05;;
24279;SDS011;12395;42.808;23.408;2023-04-24T02:28:47;6.47;;;3.72;;
24279;SDS011;12395;42.808;23.408;2023-04-24T02:31:13;6.47;;;3.95;;
24279;SDS011;12395;42.808;23.408;2023-04-24T02:33:39;6.78;;;3.60;;
24279;SDS011;12395;42.808;23.408;2023-04-24T02:36:05;5.80;;;3.65;;
24279;SDS011;12395;42.808;23.408;2023-04-24T02:38:30;6.57;;;4.07;;
24279;SDS011;12395;42.808;23.408;2023-04-24T02:40:55;6.03;;;3.72;;
24279;SDS011;12395;42.808;23.408;2023-04-24T02:43:21;7.90;;;3.80;;
24279;SDS011;12395;42.808;23.408;2023-04-24T02:45:46;7.28;;;3.55;;
24279;SDS011;12395;42.808;23.408;2023-04-24T02:48:12;8.63;;;4.25;;
24279;SDS011;12395;42.808;23.408;2023-04-24T02:50:37;7.03;;;3.83;;
24279;SDS011;12395;42.808;23.408;2023-04-24T02:53:03;7.53;;;4.28;;
24279;SDS011;12395;42.808;23.408;2023-04-24T02:55:28;6.80;;;4.10;;
24279;SDS011;12395;42.808;23.408;2023-04-24T02:57:54;9.57;;;4.25;;
24279;SDS011;12395;42.808;23.408;2023-04-24T03:00:19;10.27;;;4.55;;
24279;SDS011;12395;42.808;23.408;2023-04-24T03:02:44;8.43;;;4.38;;
24279;SDS011;12395;42.808;23.408;2023-04-24T03:05:10;7.22;;;4.55;;
24279;SDS011;12395;42.808;23.408;2023-04-24T03:07:37;8.88;;;4.60;;
24279;SDS011;12395;42.808;23.408;2023-04-24T03:10:02;8.18;;;4.20;;
24279;SDS011;12395;42.808;23.408;2023-04-24T03:12:29;8.15;;;4.70;;
24279;SDS011;12395;42.808;23.408;2023-04-24T03:14:55;8.85;;;4.25;;
24279;SDS011;12395;42.808;23.408;2023-04-24T03:17:20;7.15;;;4.40;;
24279;SDS011;12395;42.808;23.408;2023-04-24T03:19:46;7.68;;;4.65;;
24279;SDS011;12395;42.808;23.408;2023-04-24T03:22:11;7.22;;;4.60;;
24279;SDS011;12395;42.808;23.408;2023-04-24T03:24:37;8.02;;;4.30;;
24279;SDS011;12395;42.808;23.408;2023-04-24T03:27:02;9.27;;;4.88;;
24279;SDS011;12395;42.808;23.408;2023-04-24T03:29:28;8.23;;;4.78;;
24279;SDS011;12395;42.808;23.408;2023-04-24T03:31:53;9.30;;;4.70;;
24279;SDS011;12395;42.808;23.408;2023-04-24T03:34:18;6.93;;;4.43;;
24279;SDS011;12395;42.808;23.408;2023-04-24T03:36:44;7.53;;;4.88;;
24279;SDS011;12395;42.808;23.408;2023-04-24T03:39:12;8.85;;;4.35;;
24279;SDS011;12395;42.808;23.408;2023-04-24T03:41:37;7.85;;;4.78;;
24279;SDS011;12395;42.808;23.408;2023-04-24T03:44:03;8.80;;;4.78;;
24279;SDS011;12395;42.808;23.408;2023-04-24T03:46:28;8.55;;;4.82;;
24279;SDS011;12395;42.808;23.408;2023-04-24T03:48:54;7.95;;;4.68;;
24279;SDS011;12395;42.808;23.408;2023-04-24T03:51:19;8.13;;;4.85;;
24279;SDS011;12395;42.808;23.408;2023-04-24T03:53:44;8.57;;;4.75;;
24279;SDS011;12395;42.808;23.408;2023-04-24T03:56:10;11.63;;;5.07;;
24279;SDS011;12395;42.808;23.408;2023-04-24T03:58:35;8.40;;;5.05;;
24279;SDS011;12395;42.808;23.408;2023-04-24T04:01:01;8.25;;;4.57;;
24279;SDS011;12395;42.808;23.408;2023-04-24T04:03:26;7.78;;;4.80;;
24279;SDS011;12395;42.808;23.408;2023-04-24T04:05:51;8.70;;;4.85;;
24279;SDS011;12395;42.808;23.408;2023-04-24T04:08:18;11.00;;;4.95;;
24279;SDS011;12395;42.808;23.408;2023-04-24T04:10:43;8.68;;;5.10;;
24279;SDS011;12395;42.808;23.408;2023-04-24T04:13:08;9.23;;;4.60;;
24279;SDS011;12395;42.808;23.408;2023-04-24T04:15:34;7.63;;;4.97;;
24279;SDS011;12395;42.808;23.408;2023-04-24T04:18:00;8.70;;;4.72;;
24279;SDS011;12395;42.808;23.408;2023-04-24T04:20:26;7.47;;;4.65;;
24279;SDS011;12395;42.808;23.408;2023-04-24T04:22:51;7.20;;;4.47;;
24279;SDS011;12395;42.808;23.408;2023-04-24T04:25:16;9.48;;;4.50;;
24279;SDS011;12395;42.808;23.408;2023-04-24T04:27:44;8.35;;;4.65;;
24279;SDS011;12395;42.808;23.408;2023-04-24T04:30:10;7.20;;;4.82;;
24279;SDS011;12395;42.808;23.408;2023-04-24T04:32:36;8.52;;;4.97;;
24279;SDS011;12395;42.808;23.408;2023-04-24T04:35:02;9.73;;;4.78;;
24279;SDS011;12395;42.808;23.408;2023-04-24T04:37:28;7.97;;;4.47;;
24279;SDS011;12395;42.808;23.408;2023-04-24T04:39:58;6.22;;;4.50;;
24279;SDS011;12395;42.808;23.408;2023-04-24T04:42:31;10.13;;;4.45;;
24279;SDS011;12395;42.808;23.408;2023-04-24T04:44:57;7.72;;;4.20;;
24279;SDS011;12395;42.808;23.408;2023-04-24T04:47:23;7.65;;;4.50;;
24279;SDS011;12395;42.808;23.408;2023-04-24T04:49:49;7.43;;;4.38;;
24279;SDS011;12395;42.808;23.408;2023-04-24T04:52:16;7.13;;;4.72;;
24279;SDS011;12395;42.808;23.408;2023-04-24T04:54:42;8.70;;;4.97;;
24279;SDS011;12395;42.808;23.408;2023-04-24T04:57:08;9.65;;;5.30;;
24279;SDS011;12395;42.808;23.408;2023-04-24T04:59:34;7.68;;;4.82;;
24279;SDS011;12395;42.808;23.408;2023-04-24T05:01:59;8.23;;;4.88;;
24279;SDS011;12395;42.808;23.408;2023-04-24T05:04:25;9.15;;;5.30;;
24279;SDS011;12395;42.808;23.408;2023-04-24T05:06:51;12.70;;;4.90;;
24279;SDS011;12395;42.808;23.408;2023-04-24T05:09:17;8.45;;;4.93;;
24279;SDS011;12395;42.808;23.408;2023-04-24T05:11:42;6.22;;;4.55;;
24279;SDS011;12395;42.808;23.408;2023-04-24T05:14:07;7.95;;;4.60;;
24279;SDS011;12395;42.808;23.408;2023-04-24T05:16:33;9.73;;;4.93;;
24279;SDS011;12395;42.808;23.408;2023-04-24T05:18:58;12.00;;;5.25;;
24279;SDS011;12395;42.808;23.408;2023-04-24T05:21:23;10.93;;;5.68;;
24279;SDS011;12395;42.808;23.408;2023-04-24T05:23:49;7.63;;;4.93;;
24279;SDS011;12395;42.808;23.408;2023-04-24T05:26:14;7.22;;;4.38;;
24279;SDS011;12395;42.808;23.408;2023-04-24T05:28:40;9.15;;;4.47;;
24279;SDS011;12395;42.808;23.408;2023-04-24T05:31:06;8.52;;;4.30;;
24279;SDS011;12395;42.808;23.408;2023-04-24T05:33:31;8.40;;;5.18;;
24279;SDS011;12395;42.808;23.408;2023-04-24T05:35:56;9.57;;;5.40;;
24279;SDS011;12395;42.808;23.408;2023-04-24T05:38:22;5.70;;;4.00;;
24279;SDS011;12395;42.808;23.408;2023-04-24T05:40:48;9.13;;;4.70;;
24279;SDS011;12395;42.808;23.408;2023-04-24T05:43:13;8.10;;;4.60;;
24279;SDS011;12395;42.808;23.408;2023-04-24T05:45:38;10.20;;;5.28;;
24279;SDS011;12395;42.808;23.408;2023-04-24T05:48:04;8.88;;;5.35;;
24279;SDS011;12395;42.808;23.408;2023-04-24T05:50:30;10.10;;;5.28;;
24279;SDS011;12395;42.808;23.408;2023-04-24T05:52:56;7.88;;;4.35;;
24279;SDS011;12395;42.808;23.408;2023-04-24T05:55:23;9.40;;;5.13;;
24279;SDS011;12395;42.808;23.408;2023-04-24T05:57:50;14.27;;;6.72;;
24279;SDS011;12395;42.808;23.408;2023-04-24T06:00:15;18.58;;;8.55;;
24279;SDS011;12395;42.808;23.408;2023-04-24T06:02:42;12.73;;;6.50;;
24279;SDS011;12395;42.808;23.408;2023-04-24T06:05:08;11.05;;;5.10;;
24279;SDS011;12395;42.808;23.408;2023-04-24T06:07:34;7.07;;;4.50;;
24279;SDS011;12395;42.808;23.408;2023-04-24T06:10:00;8.30;;;4.35;;
24279;SDS011;12395;42.808;23.408;2023-04-24T06:12:26;8.85;;;4.70;;
24279;SDS011;12395;42.808;23.408;2023-04-24T06:14:51;8.45;;;5.13;;
24279;SDS011;12395;42.808;23.408;2023-04-24T06:17:16;6.43;;;4.20;;
24279;SDS011;12395;42.808;23.408;2023-04-24T06:19:42;9.55;;;4.65;;
24279;SDS011;12395;42.808;23.408;2023-04-24T06:22:08;9.10;;;4.45;;
24279;SDS011;12395;42.808;23.408;2023-04-24T06:24:34;7.70;;;4.20;;
24279;SDS011;12395;42.808;23.408;2023-04-24T06:26:59;6.57;;;3.95;;
24279;SDS011;12395;42.808;23.408;2023-04-24T06:29:26;6.57;;;4.15;;
24279;SDS011;12395;42.808;23.408;2023-04-24T06:31:52;7.63;;;3.70;;
24279;SDS011;12395;42.808;23.408;2023-04-24T06:34:17;7.20;;;3.63;;
24279;SDS011;12395;42.808;23.408;2023-04-24T06:36:43;8.55;;;4.15;;
24279;SDS011;12395;42.808;23.408;2023-04-24T06:39:08;7.63;;;4.22;;
24279;SDS011;12395;42.808;23.408;2023-04-24T06:41:34;7.15;;;4.57;;
24279;SDS011;12395;42.808;23.408;2023-04-24T06:43:59;5.80;;;3.75;;
24279;SDS011;12395;42.808;23.408;2023-04-24T06:46:25;6.20;;;3.78;;
24279;SDS011;12395;42.808;23.408;2023-04-24T06:48:52;11.43;;;4.75;;
24279;SDS011;12395;42.808;23.408;2023-04-24T06:51:24;8.52;;;4.93;;
24279;SDS011;12395;42.808;23.408;2023-04-24T06:53:51;9.45;;;5.40;;
24279;SDS011;12395;42.808;23.408;2023-04-24T06:56:17;11.38;;;5.10;;
24279;SDS011;12395;42.808;23.408;2023-04-24T06:58:42;9.13;;;4.72;;
24279;SDS011;12395;42.808;23.408;2023-04-24T07:01:09;8.43;;;4.68;;
24279;SDS011;12395;42.808;23.408;2023-04-24T07:03:35;9.68;;;4.68;;
24279;SDS011;12395;42.808;23.408;2023-04-24T07:06:00;9.20;;;4.30;;
24279;SDS011;12395;42.808;23.408;2023-04-24T07:08:26;8.90;;;4.65;;
24279;SDS011;12395;42.808;23.408;2023-04-24T07:10:51;10.57;;;4.60;;
24279;SDS011;12395;42.808;23.408;2023-04-24T07:13:17;8.25;;;4.75;;
24279;SDS011;12395;42.808;23.408;2023-04-24T07:15:43;8.57;;;4.55;;
24279;SDS011;12395;42.808;23.408;2023-04-24T07:18:09;9.38;;;4.80;;
24279;SDS011;12395;42.808;23.408;2023-04-24T07:20:35;8.10;;;4.20;;
24279;SDS011;12395;42.808;23.408;2023-04-24T07:23:00;7.00;;;4.20;;
24279;SDS011;12395;42.808;23.408;2023-04-24T07:25:27;9.65;;;4.68;;
24279;SDS011;12395;42.808;23.408;2023-04-24T07:27:52;7.82;;;4.25;;
24279;SDS011;12395;42.808;23.408;2023-04-24T07:30:18;8.57;;;4.88;;
24279;SDS011;12395;42.808;23.408;2023-04-24T07:32:43;9.73;;;4.60;;
24279;SDS011;12395;42.808;23.408;2023-04-24T07:35:09;8.52;;;4.93;;
24279;SDS011;12395;42.808;23.408;2023-04-24T07:37:34;10.50;;;4.82;;
24279;SDS011;12395;42.808;23.408;2023-04-24T07:40:00;7.65;;;4.68;;
24279;SDS011;12395;42.808;23.408;2023-04-24T07:42:26;8.68;;;4.60;;
24279;SDS011;12395;42.808;23.408;2023-04-24T07:44:51;8.07;;;4.53;;
24279;SDS011;12395;42.808;23.408;2023-04-24T07:47:16;10.75;;;5.55;;
24279;SDS011;12395;42.808;23.408;2023-04-24T07:49:42;9.70;;;4.97;;
24279;SDS011;12395;42.808;23.408;2023-04-24T07:52:08;8.48;;;5.15;;
24279;SDS011;12395;42.808;23.408;2023-04-24T07:54:33;8.52;;;4.78;;
24279;SDS011;12395;42.808;23.408;2023-04-24T07:56:59;8.43;;;4.68;;
24279;SDS011;12395;42.808;23.408;2023-04-24T07:59:25;8.57;;;4.60;;
24279;SDS011;12395;42.808;23.408;2023-04-24T08:01:51;7.55;;;4.70;;
24279;SDS011;12395;42.808;23.408;2023-04-24T08:04:16;7.63;;;4.72;;
24279;SDS011;12395;42.808;23.408;2023-04-24T08:06:43;8.73;;;4.90;;
24279;SDS011;12395;42.808;23.408;2023-04-24T08:09:08;9.02;;;5.20;;
24279;SDS011;12395;42.808;23.408;2023-04-24T08:11:34;9.32;;;5.03;;
24279;SDS011;12395;42.808;23.408;2023-04-24T08:13:59;9.30;;;4.90;;
24279;SDS011;12395;42.808;23.408;2023-04-24T08:16:25;9.07;;;5.40;;
24279;SDS011;12395;42.808;23.408;2023-04-24T08:18:51;8.95;;;4.80;;
24279;SDS011;12395;42.808;23.408;2023-04-24T08:21:17;9.07;;;4.97;;
24279;SDS011;12395;42.808;23.408;2023-04-24T08:23:44;8.23;;;4.93;;
24279;SDS011;12395;42.808;23.408;2023-04-24T08:26:10;8.15;;;5.10;;
24279;SDS011;12395;42.808;23.408;2023-04-24T08:28:36;8.32;;;4.70;;
24279;SDS011;12395;42.808;23.408;2023-04-24T08:31:02;9.43;;;4.88;;
24279;SDS011;12395;42.808;23.408;2023-04-24T08:33:27;8.88;;;4.95;;
24279;SDS011;12395;42.808;23.408;2023-04-24T08:35:59;7.75;;;4.85;;
24279;SDS011;12395;42.808;23.408;2023-04-24T08:38:28;11.77;;;5.57;;
24279;SDS011;12395;42.808;23.408;2023-04-24T08:40:53;8.30;;;5.35;;
24279;SDS011;12395;42.808;23.408;2023-04-24T08:43:20;9.05;;;4.97;;
24279;SDS011;12395;42.808;23.408;2023-04-24T08:45:48;8.50;;;5.22;;
24279;SDS011;12395;42.808;23.408;2023-04-24T08:48:13;6.97;;;4.80;;
24279;SDS011;12395;42.808;23.408;2023-04-24T08:50:40;8.52;;;5.22;;
24279;SDS011;12395;42.808;23.408;2023-04-24T08:53:08;8.40;;;4.78;;
24279;SDS011;12395;42.808;23.408;2023-04-24T08:55:33;9.43;;;5.15;;
24279;SDS011;12395;42.808;23.408;2023-04-24T08:57:59;8.15;;;4.88;;
24279;SDS011;12395;42.808;23.408;2023-04-24T09:00:26;9.23;;;5.60;;
24279;SDS011;12395;42.808;23.408;2023-04-24T09:02:53;8.52;;;5.28;;
24279;SDS011;12395;42.808;23.408;2023-04-24T09:05:18;9.85;;;5.30;;
24279;SDS011;12395;42.808;23.408;2023-04-24T09:07:49;11.57;;;4.93;;
24279;SDS011;12395;42.808;23.408;2023-04-24T09:10:18;7.72;;;4.72;;
24279;SDS011;12395;42.808;23.408;2023-04-24T09:12:45;13.18;;;5.00;;
24279;SDS011;12395;42.808;23.408;2023-04-24T09:15:11;9.10;;;5.40;;
24279;SDS011;12395;42.808;23.408;2023-04-24T09:17:37;8.55;;;5.32;;
24279;SDS011;12395;42.808;23.408;2023-04-24T09:20:03;9.68;;;4.90;;
24279;SDS011;12395;42.808;23.408;2023-04-24T09:22:32;7.03;;;5.03;;
24279;SDS011;12395;42.808;23.408;2023-04-24T09:25:04;8.50;;;5.05;;
24279;SDS011;12395;42.808;23.408;2023-04-24T09:27:32;11.77;;;5.10;;
24279;SDS011;12395;42.808;23.408;2023-04-24T09:30:00;7.68;;;4.70;;
24279;SDS011;12395;42.808;23.408;2023-04-24T09:32:27;8.23;;;5.43;;
24279;SDS011;12395;42.808;23.408;2023-04-24T09:35:14;10.18;;;5.28;;
24279;SDS011;12395;42.808;23.408;2023-04-24T09:37:45;8.20;;;5.20;;
24279;SDS011;12395;42.808;23.408;2023-04-24T09:40:18;9.40;;;5.35;;
24279;SDS011;12395;42.808;23.408;2023-04-24T09:42:55;11.80;;;4.82;;
24279;SDS011;12395;42.808;23.408;2023-04-24T09:45:35;10.30;;;4.68;;
24279;SDS011;12395;42.808;23.408;2023-04-24T09:48:01;11.18;;;5.88;;
24279;SDS011;12395;42.808;23.408;2023-04-24T09:50:27;7.57;;;4.80;;
24279;SDS011;12395;42.808;23.408;2023-04-24T09:52:57;8.15;;;5.55;;
24279;SDS011;12395;42.808;23.408;2023-04-24T09:55:23;9.45;;;5.20;;
24279;SDS011;12395;42.808;23.408;2023-04-24T09:57:51;6.82;;;4.47;;
24279;SDS011;12395;42.808;23.408;2023-04-24T10:00:29;6.88;;;4.95;;
24279;SDS011;12395;42.808;23.408;2023-04-24T10:03:05;7.72;;;4.85;;
24279;SDS011;12395;42.808;23.408;2023-04-24T10:05:34;7.75;;;5.00;;
24279;SDS011;12395;42.808;23.408;2023-04-24T10:10:32;7.72;;;5.20;;
24279;SDS011;12395;42.808;23.408;2023-04-24T10:12:59;7.68;;;4.57;;
24279;SDS011;12395;42.808;23.408;2023-04-24T10:15:26;8.23;;;5.50;;
24279;SDS011;12395;42.808;23.408;2023-04-24T10:17:52;8.38;;;5.13;;
24279;SDS011;12395;42.808;23.408;2023-04-24T10:20:22;8.13;;;5.13;;
24279;SDS011;12395;42.808;23.408;2023-04-24T10:22:49;6.82;;;4.82;;
24279;SDS011;12395;42.808;23.408;2023-04-24T10:25:22;8.30;;;5.03;;
24279;SDS011;12395;42.808;23.408;2023-04-24T10:27:50;8.20;;;4.90;;
24279;SDS011;12395;42.808;23.408;2023-04-24T10:30:16;10.88;;;5.10;;
24279;SDS011;12395;42.808;23.408;2023-04-24T10:32:43;8.40;;;5.13;;
24279;SDS011;12395;42.808;23.408;2023-04-24T10:35:09;6.43;;;4.57;;
24279;SDS011;12395;42.808;23.408;2023-04-24T10:37:37;9.10;;;4.80;;
24279;SDS011;12395;42.808;23.408;2023-04-24T10:40:25;9.57;;;5.10;;
24279;SDS011;12395;42.808;23.408;2023-04-24T10:42:53;10.10;;;5.50;;
24279;SDS011;12395;42.808;23.408;2023-04-24T10:45:19;9.02;;;5.22;;
24279;SDS011;12395;42.808;23.408;2023-04-24T10:48:02;7.75;;;5.07;;
24279;SDS011;12395;42.808;23.408;2023-04-24T10:50:42;6.78;;;5.00;;
24279;SDS011;12395;42.808;23.408;2023-04-24T10:53:22;7.70;;;4.72;;
24279;SDS011;12395;42.808;23.408;2023-04-24T11:01:03;7.45;;;4.65;;
24279;SDS011;12395;42.808;23.408;2023-04-24T11:03:30;8.10;;;4.68;;
24279;SDS011;12395;42.808;23.408;2023-04-24T11:06:06;8.05;;;5.40;;
24279;SDS011;12395;42.808;23.408;2023-04-24T11:08:42;8.77;;;4.95;;
24279;SDS011;12395;42.808;23.408;2023-04-24T11:11:16;10.50;;;4.80;;
24279;SDS011;12395;42.808;23.408;2023-04-24T11:16:28;8.40;;;4.63;;
24279;SDS011;12395;42.808;23.408;2023-04-24T11:19:03;8.02;;;4.85;;
24279;SDS011;12395;42.808;23.408;2023-04-24T11:21:42;7.78;;;4.85;;
24279;SDS011;12395;42.808;23.408;2023-04-24T11:24:22;7.18;;;4.57;;
24279;SDS011;12395;42.808;23.408;2023-04-24T11:26:55;9.35;;;4.70;;
24279;SDS011;12395;42.808;23.408;2023-04-24T11:29:22;9.55;;;4.78;;
24279;SDS011;12395;42.808;23.408;2023-04-24T11:31:48;7.70;;;4.67;;
24279;SDS011;12395;42.808;23.408;2023-04-24T11:34:14;7.97;;;5.00;;
24279;SDS011;12395;42.808;23.408;2023-04-24T11:36:47;8.10;;;4.90;;
24279;SDS011;12395;42.808;23.408;2023-04-24T11:39:13;8.02;;;4.90;;
24279;SDS011;12395;42.808;23.408;2023-04-24T11:41:40;10.05;;;4.85;;
24279;SDS011;12395;42.808;23.408;2023-04-24T11:44:53;11.13;;;4.70;;
24279;SDS011;12395;42.808;23.408;2023-04-24T11:49:55;7.05;;;4.32;;
24279;SDS011;12395;42.808;23.408;2023-04-24T11:52:21;11.45;;;5.15;;
24279;SDS011;12395;42.808;23.408;2023-04-24T11:54:47;7.57;;;4.93;;
24279;SDS011;12395;42.808;23.408;2023-04-24T11:57:18;6.78;;;4.20;;
24279;SDS011;12395;42.808;23.408;2023-04-24T11:59:45;6.57;;;4.32;;
24279;SDS011;12395;42.808;23.408;2023-04-24T12:04:51;6.72;;;4.32;;
24279;SDS011;12395;42.808;23.408;2023-04-24T12:07:18;6.03;;;4.10;;
24279;SDS011;12395;42.808;23.408;2023-04-24T12:09:47;4.65;;;3.40;;
24279;SDS011;12395;42.808;23.408;2023-04-24T12:12:16;4.57;;;3.40;;
24279;SDS011;12395;42.808;23.408;2023-04-24T12:15:06;5.07;;;3.28;;
24279;SDS011;12395;42.808;23.408;2023-04-24T12:17:32;4.97;;;3.75;;
24279;SDS011;12395;42.808;23.408;2023-04-24T12:20:04;10.60;;;3.70;;
24279;SDS011;12395;42.808;23.408;2023-04-24T12:22:47;4.50;;;3.42;;
24279;SDS011;12395;42.808;23.408;2023-04-24T12:25:16;5.85;;;3.92;;
24279;SDS011;12395;42.808;23.408;2023-04-24T12:27:46;6.40;;;4.30;;
24279;SDS011;12395;42.808;23.408;2023-04-24T12:30:18;13.13;;;7.05;;
24279;SDS011;12395;42.808;23.408;2023-04-24T12:32:45;8.65;;;4.78;;
24279;SDS011;12395;42.808;23.408;2023-04-24T12:35:23;8.90;;;4.68;;
24279;SDS011;12395;42.808;23.408;2023-04-24T12:37:50;8.63;;;4.72;;
24279;SDS011;12395;42.808;23.408;2023-04-24T12:40:16;9.88;;;5.18;;
24279;SDS011;12395;42.808;23.408;2023-04-24T12:42:43;5.32;;;3.88;;
24279;SDS011;12395;42.808;23.408;2023-04-24T12:45:10;7.75;;;4.65;;
24279;SDS011;12395;42.808;23.408;2023-04-24T12:47:37;8.35;;;5.35;;
24279;SDS011;12395;42.808;23.408;2023-04-24T12:50:03;5.33;;;3.93;;
24279;SDS011;12395;42.808;23.408;2023-04-24T12:52:30;6.50;;;4.63;;
24279;SDS011;12395;42.808;23.408;2023-04-24T12:54:56;4.45;;;3.40;;
24279;SDS011;12395;42.808;23.408;2023-04-24T12:57:24;5.25;;;4.15;;
24279;SDS011;12395;42.808;23.408;2023-04-24T12:59:53;5.65;;;3.83;;
24279;SDS011;12395;42.808;23.408;2023-04-24T13:02:21;4.93;;;3.55;;
24279;SDS011;12395;42.808;23.408;2023-04-24T13:04:47;5.28;;;3.70;;
24279;SDS011;12395;42.808;23.408;2023-04-24T13:07:13;5.72;;;3.40;;
24279;SDS011;12395;42.808;23.408;2023-04-24T13:09:40;4.53;;;3.25;;
24279;SDS011;12395;42.808;23.408;2023-04-24T13:12:06;4.40;;;3.50;;
24279;SDS011;12395;42.808;23.408;2023-04-24T13:14:32;4.40;;;3.38;;
24279;SDS011;12395;42.808;23.408;2023-04-24T13:16:58;3.95;;;3.45;;
24279;SDS011;12395;42.808;23.408;2023-04-24T13:19:27;5.68;;;3.30;;
24279;SDS011;12395;42.808;23.408;2023-04-24T13:21:53;5.47;;;3.50;;
24279;SDS011;12395;42.808;23.408;2023-04-24T13:24:20;4.93;;;3.38;;
24279;SDS011;12395;42.808;23.408;2023-04-24T13:26:49;5.43;;;3.60;;
24279;SDS011;12395;42.808;23.408;2023-04-24T13:29:15;4.13;;;3.42;;
24279;SDS011;12395;42.808;23.408;2023-04-24T13:31:40;4.55;;;3.53;;
24279;SDS011;12395;42.808;23.408;2023-04-24T13:34:06;5.03;;;3.53;;
24279;SDS011;12395;42.808;23.408;2023-04-24T13:36:32;4.65;;;3.30;;
24279;SDS011;12395;42.808;23.408;2023-04-24T13:38:57;4.38;;;3.30;;
24279;SDS011;12395;42.808;23.408;2023-04-24T13:41:23;5.57;;;3.70;;
24279;SDS011;12395;42.808;23.408;2023-04-24T13:43:48;7.68;;;3.60;;
24279;SDS011;12395;42.808;23.408;2023-04-24T13:46:14;5.72;;;3.10;;
24279;SDS011;12395;42.808;23.408;2023-04-24T13:48:41;5.50;;;3.80;;
24279;SDS011;12395;42.808;23.408;2023-04-24T13:51:06;6.60;;;4.10;;
24279;SDS011;12395;42.808;23.408;2023-04-24T13:53:31;5.90;;;3.80;;
24279;SDS011;12395;42.808;23.408;2023-04-24T13:56:00;5.53;;;3.95;;
24279;SDS011;12395;42.808;23.408;2023-04-24T13:58:27;5.45;;;4.00;;
24279;SDS011;12395;42.808;23.408;2023-04-24T14:00:52;5.45;;;3.90;;
24279;SDS011;12395;42.808;23.408;2023-04-24T14:03:17;4.80;;;3.80;;
24279;SDS011;12395;42.808;23.408;2023-04-24T14:05:43;3.95;;;3.55;;
24279;SDS011;12395;42.808;23.408;2023-04-24T14:08:08;4.18;;;3.42;;
24279;SDS011;12395;42.808;23.408;2023-04-24T14:10:33;6.60;;;3.95;;
24279;SDS011;12395;42.808;23.408;2023-04-24T14:12:59;4.78;;;3.55;;
24279;SDS011;12395;42.808;23.408;2023-04-24T14:15:24;5.68;;;3.95;;
24279;SDS011;12395;42.808;23.408;2023-04-24T14:17:50;5.00;;;3.60;;
24279;SDS011;12395;42.808;23.408;2023-04-24T14:20:15;6.40;;;3.60;;
24279;SDS011;12395;42.808;23.408;2023-04-24T14:22:41;4.25;;;3.38;;
24279;SDS011;12395;42.808;23.408;2023-04-24T14:25:06;3.92;;;2.97;;
24279;SDS011;12395;42.808;23.408;2023-04-24T14:27:32;4.65;;;3.40;;
24279;SDS011;12395;42.808;23.408;2023-04-24T14:29:59;5.28;;;3.72;;
24279;SDS011;12395;42.808;23.408;2023-04-24T14:32:25;5.38;;;3.30;;
24279;SDS011;12395;42.808;23.408;2023-04-24T14:34:50;5.57;;;3.58;;
24279;SDS011;12395;42.808;23.408;2023-04-24T14:37:16;7.47;;;3.30;;
24279;SDS011;12395;42.808;23.408;2023-04-24T14:39:41;4.72;;;3.80;;
24279;SDS011;12395;42.808;23.408;2023-04-24T14:42:07;5.18;;;3.45;;
24279;SDS011;12395;42.808;23.408;2023-04-24T14:44:32;5.65;;;3.70;;
24279;SDS011;12395;42.808;23.408;2023-04-24T14:46:58;7.35;;;4.10;;